createdAt,value
2023-01-10T00:00:13.589Z,97687.28
2023-01-10T00:02:41.606Z,97695.34
2023-01-10T00:05:09.960Z,97690.44
2023-01-10T00:07:39.286Z,97682.78
2023-01-10T00:10:08.043Z,97704.31
2023-01-10T00:12:53.482Z,97700.31
2023-01-10T00:15:21.632Z,97698.75
2023-01-10T00:17:49.500Z,97707.94
2023-01-10T00:20:18.349Z,97719.09
2023-01-10T00:22:50.330Z,97719.22
2023-01-10T00:25:23.518Z,97726.06
2023-01-10T00:28:02.004Z,97735.63
2023-01-10T00:30:30.782Z,97727.81
2023-01-10T00:33:01.293Z,97736.28
2023-01-10T00:35:31.470Z,97731.16
2023-01-10T00:38:05.780Z,97729.25
2023-01-10T00:40:34.363Z,97734.66
2023-01-10T00:43:20.290Z,97747.41
2023-01-10T00:45:48.156Z,97737.22
2023-01-10T00:48:19.671Z,97740.09
2023-01-10T00:50:47.876Z,97748.69
2023-01-10T00:53:20.085Z,97753.94
2023-01-10T00:55:49.253Z,97758.41
2023-01-10T00:58:18.219Z,97761.28
2023-01-10T01:00:49.712Z,97767.84
2023-01-10T01:03:23.126Z,97773.88
2023-01-10T01:05:52.016Z,97766.03
2023-01-10T01:08:21.138Z,97776.28
2023-01-10T01:10:49.838Z,97782.75
2023-01-10T01:13:19.649Z,97778.31
2023-01-10T01:15:48.350Z,97789.47
2023-01-10T01:18:18.817Z,97794.91
2023-01-10T01:20:47.488Z,97800.63
2023-01-10T01:23:15.883Z,97810.19
2023-01-10T01:25:45.317Z,97814.63
2023-01-10T01:28:13.808Z,97818.47
2023-01-10T01:30:41.576Z,97824.03
2023-01-10T01:33:09.454Z,97827.25
2023-01-10T01:35:38.676Z,97835.03
2023-01-10T01:38:06.475Z,97843.94
2023-01-10T01:40:34.337Z,97849.19
2023-01-10T01:43:03.577Z,97846.16
2023-01-10T01:45:37.956Z,97846.16
2023-01-10T01:48:21.845Z,97837.88
2023-01-10T01:50:54.869Z,97860.81
2023-01-10T01:53:28.670Z,97859.22
2023-01-10T01:56:02.141Z,97859.22
2023-01-10T01:58:39.111Z,97856.34
2023-01-10T02:01:07.176Z,97861.91
2023-01-10T02:03:36.382Z,97868.91
2023-01-10T02:06:04.705Z,97863.03
2023-01-10T02:08:34.586Z,97877.66
2023-01-10T02:11:09.470Z,97868.44
2023-01-10T02:13:42.668Z,97872.25
2023-01-10T02:16:10.952Z,97891.88
2023-01-10T02:18:42.554Z,97893.78
2023-01-10T02:21:27.623Z,97889.47
2023-01-10T02:24:23.085Z,97883.09
2023-01-10T02:27:11.424Z,97878.00
2023-01-10T02:30:25.140Z,97883.41
2023-01-10T02:33:05.049Z,97894.88
2023-01-10T02:36:02.989Z,97896.47
2023-01-10T02:38:42.032Z,97900.13
2023-01-10T02:41:19.344Z,97905.69
2023-01-10T02:43:51.760Z,97903.47
2023-01-10T02:46:25.280Z,97904.91
2023-01-10T02:48:55.343Z,97913.19
2023-01-10T02:51:25.373Z,97909.69
2023-01-10T02:53:57.667Z,97914.47
2023-01-10T02:57:11.224Z,97919.88
2023-01-10T03:00:04.103Z,97927.69
2023-01-10T03:02:45.784Z,97936.28
2023-01-10T03:05:23.904Z,97931.66
2023-01-10T03:08:01.077Z,97934.50
2023-01-10T03:10:36.398Z,97949.19
2023-01-10T03:13:11.560Z,97949.34
2023-01-10T03:15:42.570Z,97958.56
2023-01-10T03:18:15.118Z,97956.03
2023-01-10T03:20:48.150Z,97964.00
2023-01-10T03:23:17.768Z,97960.81
2023-01-10T03:25:47.728Z,97968.44
2023-01-10T03:28:20.112Z,97975.47
2023-01-10T03:30:53.136Z,97978.00
2023-01-10T03:33:28.543Z,97992.03
2023-01-10T03:36:09.955Z,97991.72
2023-01-10T03:38:45.857Z,97992.81
2023-01-10T03:41:17.071Z,98001.56
2023-01-10T03:44:07.730Z,98001.56
2023-01-10T03:46:42.882Z,98006.06
2023-01-10T03:49:12.639Z,98021.66
2023-01-10T03:51:42.911Z,98025.00
2023-01-10T03:54:10.803Z,98023.88
2023-01-10T03:56:50.465Z,98039.00
2023-01-10T03:59:20.249Z,98040.44
2023-01-10T04:01:48.229Z,98044.91
2023-01-10T04:04:16.094Z,98048.91
2023-01-10T04:06:45.351Z,98052.72
2023-01-10T04:09:13.748Z,98060.84
2023-01-10T04:11:41.467Z,98068.00
2023-01-10T04:14:09.347Z,98062.44
2023-01-10T04:16:37.441Z,98058.63
2023-01-10T04:19:05.275Z,98070.69
2023-01-10T04:21:33.045Z,98079.94
2023-01-10T04:24:02.318Z,98078.50
2023-01-10T04:26:30.211Z,98082.16
2023-01-10T04:28:57.921Z,98075.47
2023-01-10T04:31:27.136Z,98097.16
2023-01-10T04:33:55.076Z,98107.34
2023-01-10T04:36:22.911Z,98107.19
2023-01-10T04:38:50.894Z,98108.59
2023-01-10T04:41:20.062Z,98109.41
2023-01-10T04:43:48.103Z,98111.31
2023-01-10T04:46:15.741Z,98127.88
2023-01-10T04:48:43.501Z,98129.47
2023-01-10T04:51:11.297Z,98131.50
2023-01-10T04:53:39.332Z,98151.31
2023-01-10T04:56:08.440Z,98144.28
2023-01-10T04:58:39.453Z,98140.59
2023-01-10T05:01:10.746Z,98149.53
2023-01-10T05:03:38.738Z,98146.63
2023-01-10T05:06:07.036Z,98147.13
2023-01-10T05:08:34.888Z,98148.38
2023-01-10T05:11:02.769Z,98166.22
2023-01-10T05:13:30.491Z,98170.03
2023-01-10T05:16:00.039Z,98177.69
2023-01-10T05:18:28.612Z,98179.28
2023-01-10T05:21:01.521Z,98198.09
2023-01-10T05:23:29.566Z,98200.94
2023-01-10T05:25:57.623Z,98205.72
2023-01-10T05:28:25.770Z,98194.25
2023-01-10T05:30:53.415Z,98212.56
2023-01-10T05:33:22.503Z,98211.63
2023-01-10T05:35:50.171Z,98210.50
2023-01-10T05:38:17.900Z,98222.09
2023-01-10T05:40:45.609Z,98232.44
2023-01-10T05:43:13.366Z,98228.00
2023-01-10T05:45:41.075Z,98233.91
2023-01-10T05:48:08.792Z,98248.41
2023-01-10T05:50:37.942Z,98256.66
2023-01-10T05:53:06.985Z,98256.03
2023-01-10T05:55:35.125Z,98264.03
2023-01-10T05:58:03.018Z,98268.84
2023-01-10T06:00:30.775Z,98271.84
2023-01-10T06:02:58.778Z,98273.41
2023-01-10T06:05:26.520Z,98285.22
2023-01-10T06:07:55.625Z,98284.59
2023-01-10T06:10:23.303Z,98293.09
2023-01-10T06:12:50.987Z,98296.91
2023-01-10T06:15:18.925Z,98302.94
2023-01-10T06:17:46.680Z,98297.53
2023-01-10T06:20:16.277Z,98308.34
2023-01-10T06:22:44.861Z,98315.19
2023-01-10T06:25:14.872Z,98315.66
2023-01-10T06:27:43.122Z,98323.00
2023-01-10T06:30:13.772Z,98321.88
2023-01-10T06:32:42.413Z,98335.06
2023-01-10T06:35:10.996Z,98343.28
2023-01-10T06:37:39.495Z,98350.44
2023-01-10T06:40:08.536Z,98357.16
2023-01-10T06:42:37.813Z,98364.94
2023-01-10T06:45:06.382Z,98369.75
2023-01-10T06:47:34.132Z,98375.78
2023-01-10T06:50:01.806Z,98383.44
2023-01-10T06:52:30.224Z,98379.16
2023-01-10T06:54:57.883Z,98381.69
2023-01-10T06:57:25.747Z,98386.59
2023-01-10T06:59:54.936Z,98402.50
2023-01-10T07:02:22.771Z,98414.94
2023-01-10T07:04:50.561Z,98411.72
2023-01-10T07:07:18.310Z,98421.94
2023-01-10T07:09:46.347Z,98431.06
2023-01-10T07:12:14.073Z,98430.38
2023-01-10T07:14:41.865Z,98438.19
2023-01-10T07:17:11.029Z,98439.78
2023-01-10T07:19:38.820Z,98455.03
2023-01-10T07:22:06.576Z,98464.25
2023-01-10T07:24:34.572Z,98469.88
2023-01-10T07:27:02.286Z,98475.09
2023-01-10T07:29:30.052Z,98466.25
2023-01-10T07:31:57.854Z,98471.66
2023-01-10T07:34:26.945Z,98487.41
2023-01-10T07:36:54.678Z,98495.28
2023-01-10T07:39:22.347Z,98499.09
2023-01-10T07:41:50.864Z,98500.72
2023-01-10T07:44:18.584Z,98507.22
2023-01-10T07:46:46.338Z,98507.72
2023-01-10T07:49:14.284Z,98518.31
2023-01-10T07:51:43.393Z,98520.06
2023-01-10T07:54:12.528Z,98525.59
2023-01-10T07:56:41.822Z,98540.03
2023-01-10T07:59:09.588Z,98537.00
2023-01-10T08:01:37.336Z,98532.19
2023-01-10T08:04:05.433Z,98543.03
2023-01-10T08:06:33.545Z,98545.75
2023-01-10T08:09:05.104Z,98549.53
2023-01-10T08:11:32.943Z,98558.38
2023-01-10T08:14:00.671Z,98554.88
2023-01-10T08:16:28.530Z,98561.47
2023-01-10T08:18:56.301Z,98562.13
2023-01-10T08:21:24.050Z,98562.41
2023-01-10T08:23:52.609Z,98562.13
2023-01-10T08:26:21.854Z,98561.09
2023-01-10T08:28:49.517Z,98563.22
2023-01-10T08:31:17.313Z,98567.53
2023-01-10T08:33:45.098Z,98576.53
2023-01-10T08:36:17.741Z,98580.25
2023-01-10T08:38:45.956Z,98591.16
2023-01-10T08:41:13.739Z,98595.38
2023-01-10T08:43:42.806Z,98610.84
2023-01-10T08:46:10.603Z,98605.81
2023-01-10T08:48:38.555Z,98601.00
2023-01-10T08:51:08.273Z,98595.56
2023-01-10T08:53:36.086Z,98592.69
2023-01-10T08:56:05.629Z,98594.38
2023-01-10T08:58:33.502Z,98597.19
2023-01-10T09:01:05.065Z,98613.34
2023-01-10T09:03:32.849Z,98610.03
2023-01-10T09:06:01.453Z,98622.84
2023-01-10T09:08:29.854Z,98628.47
2023-01-10T09:11:00.294Z,98638.81
2023-01-10T09:13:28.052Z,98641.41
2023-01-10T09:15:56.721Z,98645.22
2023-01-10T09:18:26.221Z,98651.16
2023-01-10T09:20:54.262Z,98661.97
2023-01-10T09:23:23.742Z,98669.59
2023-01-10T09:25:53.409Z,98683.22
2023-01-10T09:28:24.209Z,98681.25
2023-01-10T09:30:52.308Z,98678.22
2023-01-10T09:33:20.428Z,98673.31
2023-01-10T09:35:49.487Z,98676.31
2023-01-10T09:38:22.166Z,98682.03
2023-01-10T09:41:12.165Z,98688.94
2023-01-10T09:43:51.294Z,98693.88
2023-01-10T09:46:26.911Z,98679.13
2023-01-10T09:49:01.889Z,98683.44
2023-01-10T09:51:36.470Z,98689.84
2023-01-10T09:54:12.197Z,98694.88
2023-01-10T09:56:41.543Z,98699.28
2023-01-10T09:59:15.141Z,98690.75
2023-01-10T10:01:43.007Z,98681.50
2023-01-10T10:04:20.987Z,98679.22
2023-01-10T10:06:51.747Z,98678.63
2023-01-10T10:09:24.354Z,98674.66
2023-01-10T10:12:04.990Z,98664.53
2023-01-10T10:14:45.157Z,98669.56
2023-01-10T10:17:33.632Z,98665.84
2023-01-10T10:20:21.447Z,98681.00
2023-01-10T10:22:58.063Z,98692.66
2023-01-10T10:25:45.347Z,98695.25
2023-01-10T10:28:32.013Z,98700.69
2023-01-10T10:31:11.072Z,98700.47
2023-01-10T10:33:57.662Z,98705.91
2023-01-10T10:36:31.923Z,98707.91
2023-01-10T10:39:03.795Z,98712.72
2023-01-10T10:41:35.540Z,98710.69
2023-01-10T10:44:12.221Z,98704.19
2023-01-10T10:46:41.081Z,98705.31
2023-01-10T10:49:18.903Z,98698.56
2023-01-10T10:51:52.048Z,98709.72
2023-01-10T10:54:21.387Z,98711.81
2023-01-10T10:56:49.096Z,98721.06
2023-01-10T10:59:20.631Z,98717.34
2023-01-10T11:01:49.867Z,98718.34
2023-01-10T11:04:22.042Z,98721.56
2023-01-10T11:06:50.773Z,98723.16
2023-01-10T11:09:24.983Z,98736.41
2023-01-10T11:11:54.288Z,98727.38
2023-01-10T11:14:44.091Z,98729.38
2023-01-10T11:17:23.710Z,98716.53
2023-01-10T11:20:02.352Z,98722.66
2023-01-10T11:22:34.567Z,98726.38
2023-01-10T11:25:04.633Z,98731.78
2023-01-10T11:27:34.503Z,98719.34
2023-01-10T11:30:08.575Z,98731.38
2023-01-10T11:32:40.689Z,98729.69
2023-01-10T11:35:17.247Z,98728.56
2023-01-10T11:37:44.984Z,98737.91
2023-01-10T11:40:24.067Z,98734.59
2023-01-10T11:42:54.668Z,98733.59
2023-01-10T11:45:33.769Z,98730.78
2023-01-10T11:48:08.943Z,98731.78
2023-01-10T11:50:39.235Z,98725.78
2023-01-10T11:53:29.659Z,98730.09
2023-01-10T11:55:58.964Z,98715.31
2023-01-10T11:58:33.500Z,98725.78
2023-01-10T12:01:01.936Z,98730.59
2023-01-10T12:03:33.168Z,98729.59
2023-01-10T12:06:04.018Z,98731.00
2023-01-10T12:08:33.202Z,98743.63
2023-01-10T12:11:04.531Z,98737.00
2023-01-10T12:13:53.572Z,98733.19
2023-01-10T12:16:24.356Z,98749.47
2023-01-10T12:18:54.116Z,98737.63
2023-01-10T12:21:27.869Z,98736.81
2023-01-10T12:23:58.993Z,98733.41
2023-01-10T12:26:31.870Z,98726.78
2023-01-10T12:29:06.882Z,98721.56
2023-01-10T12:31:36.589Z,98725.38
2023-01-10T12:34:11.480Z,98739.00
2023-01-10T12:36:48.507Z,98734.00
2023-01-10T12:39:23.131Z,98736.63
2023-01-10T12:42:22.443Z,98732.91
2023-01-10T12:44:54.598Z,98712.88
2023-01-10T12:47:31.119Z,98718.13
2023-01-10T12:50:04.983Z,98717.72
2023-01-10T12:52:42.701Z,98730.78
2023-01-10T12:55:15.064Z,98728.56
2023-01-10T12:57:51.610Z,98739.81
2023-01-10T13:00:24.844Z,98742.03
2023-01-10T13:02:55.494Z,98736.63
2023-01-10T13:05:25.741Z,98749.66
2023-01-10T13:07:57.222Z,98744.34
2023-01-10T13:10:26.698Z,98747.66
2023-01-10T13:13:00.945Z,98757.28
2023-01-10T13:15:31.721Z,98746.63
2023-01-10T13:18:03.845Z,98734.59
2023-01-10T13:20:39.085Z,98746.25
2023-01-10T13:23:31.179Z,98739.41
2023-01-10T13:26:05.435Z,98727.56
2023-01-10T13:28:37.012Z,98730.19
2023-01-10T13:31:07.815Z,98724.34
2023-01-10T13:33:51.290Z,98726.38
2023-01-10T13:36:23.006Z,98730.59
2023-01-10T13:38:53.922Z,98734.91
2023-01-10T13:41:39.796Z,98738.41
2023-01-10T13:44:14.000Z,98744.03
2023-01-10T13:46:45.083Z,98753.88
2023-01-10T13:49:45.848Z,98747.44
2023-01-10T13:52:31.956Z,98737.22
2023-01-10T13:55:03.679Z,98743.84
2023-01-10T13:57:51.739Z,98749.25
2023-01-10T14:01:00.726Z,98751.69
2023-01-10T14:03:43.921Z,98758.09
2023-01-10T14:06:17.453Z,98762.53
2023-01-10T14:08:51.742Z,98765.31
2023-01-10T14:11:21.341Z,98761.81
2023-01-10T14:13:53.283Z,98766.53
2023-01-10T14:16:34.632Z,98769.75
2023-01-10T14:19:03.678Z,98767.72
2023-01-10T14:21:35.195Z,98768.91
2023-01-10T14:24:03.527Z,98774.44
2023-01-10T14:26:34.213Z,98774.34
2023-01-10T14:29:07.146Z,98778.75
2023-01-10T14:31:38.800Z,98776.97
2023-01-10T14:34:11.785Z,98780.34
2023-01-10T14:36:46.188Z,98766.72
2023-01-10T14:39:16.302Z,98772.66
2023-01-10T14:41:46.737Z,98770.91
2023-01-10T14:44:18.267Z,98769.31
2023-01-10T14:46:48.969Z,98767.81
2023-01-10T14:49:28.235Z,98772.72
2023-01-10T14:52:00.971Z,98770.53
2023-01-10T14:54:30.267Z,98773.75
2023-01-10T14:56:58.520Z,98768.13
2023-01-10T14:59:27.897Z,98771.72
2023-01-10T15:01:59.724Z,98770.63
2023-01-10T15:04:30.299Z,98775.22
2023-01-10T15:07:02.216Z,98773.84
2023-01-10T15:09:32.033Z,98774.50
2023-01-10T15:12:02.926Z,98772.31
2023-01-10T15:14:33.070Z,98772.09
2023-01-10T15:17:06.282Z,98769.09
2023-01-10T15:19:36.049Z,98774.50
2023-01-10T15:22:04.728Z,98774.63
2023-01-10T15:24:34.373Z,98764.19
2023-01-10T15:27:05.198Z,98763.09
2023-01-10T15:29:34.237Z,98768.41
2023-01-10T15:32:10.061Z,98766.09
2023-01-10T15:34:38.864Z,98766.50
2023-01-10T15:37:08.518Z,98761.97
2023-01-10T15:39:40.469Z,98757.66
2023-01-10T15:42:10.489Z,98762.19
2023-01-10T15:44:41.193Z,98757.28
2023-01-10T15:47:40.081Z,98753.47
2023-01-10T15:50:22.258Z,98745.81
2023-01-10T15:52:52.406Z,98750.84
2023-01-10T15:55:39.803Z,98748.66
2023-01-10T15:58:19.554Z,98754.44
2023-01-10T16:00:48.990Z,98748.22
2023-01-10T16:03:27.831Z,98742.00
2023-01-10T16:05:59.203Z,98729.47
2023-01-10T16:08:29.219Z,98732.75
2023-01-10T16:10:59.780Z,98733.16
2023-01-10T16:13:27.508Z,98727.75
2023-01-10T16:15:56.409Z,98732.69
2023-01-10T16:18:26.407Z,98732.75
2023-01-10T16:20:57.174Z,98733.78
2023-01-10T16:23:27.074Z,98725.16
2023-01-10T16:25:57.043Z,98722.31
2023-01-10T16:28:27.422Z,98722.94
2023-01-10T16:30:55.573Z,98722.75
2023-01-10T16:33:27.758Z,98727.34
2023-01-10T16:35:58.267Z,98725.16
2023-01-10T16:38:28.804Z,98719.31
2023-01-10T16:40:59.875Z,98721.13
2023-01-10T16:43:29.120Z,98724.31
2023-01-10T16:45:59.943Z,98718.69
2023-01-10T16:48:31.013Z,98734.72
2023-01-10T16:51:06.636Z,98726.69
2023-01-10T16:53:34.292Z,98730.31
2023-01-10T16:56:02.007Z,98719.03
2023-01-10T16:58:29.953Z,98728.47
2023-01-10T17:00:59.412Z,98720.44
2023-01-10T17:03:29.032Z,98730.22
2023-01-10T17:05:56.755Z,98721.59
2023-01-10T17:08:25.618Z,98729.66
2023-01-10T17:10:56.427Z,98728.03
2023-01-10T17:13:28.122Z,98724.63
2023-01-10T17:15:55.879Z,98714.44
2023-01-10T17:18:25.932Z,98716.19
2023-01-10T17:20:55.693Z,98716.00
2023-01-10T17:23:23.620Z,98712.22
2023-01-10T17:25:51.470Z,98711.00
2023-01-10T17:28:20.056Z,98717.31
2023-01-10T17:30:47.843Z,98708.19
2023-01-10T17:33:15.551Z,98704.38
2023-01-10T17:35:44.652Z,98706.56
2023-01-10T17:38:16.305Z,98697.94
2023-01-10T17:40:45.447Z,98696.84
2023-01-10T17:43:14.401Z,98680.63
2023-01-10T17:45:43.006Z,98685.69
2023-01-10T17:48:12.938Z,98687.09
2023-01-10T17:50:40.628Z,98681.53
2023-01-10T17:53:08.322Z,98689.06
2023-01-10T17:55:37.743Z,98691.84
2023-01-10T17:58:05.431Z,98692.44
2023-01-10T18:00:33.205Z,98699.25
2023-01-10T18:03:00.923Z,98686.59
2023-01-10T18:05:28.659Z,98682.75
2023-01-10T18:07:56.753Z,98691.56
2023-01-10T18:10:24.515Z,98683.56
2023-01-10T18:12:53.636Z,98700.56
2023-01-10T18:15:21.349Z,98698.88
2023-01-10T18:17:49.375Z,98692.00
2023-01-10T18:20:17.562Z,98685.00
2023-01-10T18:23:04.800Z,98684.56
2023-01-10T18:25:32.826Z,98681.66
2023-01-10T18:28:01.954Z,98681.72
2023-01-10T18:30:29.560Z,98679.47
2023-01-10T18:32:57.590Z,98681.66
2023-01-10T18:35:25.737Z,98680.16
2023-01-10T18:37:55.267Z,98678.78
2023-01-10T18:40:22.971Z,98680.88
2023-01-10T18:42:54.121Z,98681.41
2023-01-10T18:45:26.359Z,98679.81
2023-01-10T18:47:57.481Z,98675.13
2023-01-10T18:50:25.761Z,98678.13
2023-01-10T18:52:53.444Z,98678.72
2023-01-10T18:55:21.111Z,98672.72
2023-01-10T18:57:49.199Z,98660.31
2023-01-10T19:00:17.719Z,98665.94
2023-01-10T19:02:47.124Z,98658.13
2023-01-10T19:05:15.160Z,98640.91
2023-01-10T19:07:43.037Z,98645.72
2023-01-10T19:10:11.968Z,98639.28
2023-01-10T19:12:40.551Z,98627.91
2023-01-10T19:15:10.137Z,98635.50
2023-01-10T19:17:37.788Z,98635.50
2023-01-10T19:20:08.997Z,98629.50
2023-01-10T19:22:36.696Z,98620.72
2023-01-10T19:25:05.358Z,98629.84
2023-01-10T19:27:33.814Z,98626.34
2023-01-10T19:30:01.765Z,98631.13
2023-01-10T19:32:29.857Z,98623.66
2023-01-10T19:34:57.599Z,98631.75
2023-01-10T19:37:27.720Z,98630.34
2023-01-10T19:39:55.412Z,98628.75
2023-01-10T19:42:25.192Z,98627.59
2023-01-10T19:44:53.609Z,98623.22
2023-01-10T19:47:21.343Z,98619.88
2023-01-10T19:49:49.135Z,98623.81
2023-01-10T19:52:16.919Z,98616.94
2023-01-10T19:54:48.355Z,98626.84
2023-01-10T19:57:16.235Z,98628.91
2023-01-10T19:59:45.334Z,98617.63
2023-01-10T20:02:13.714Z,98621.00
2023-01-10T20:04:41.448Z,98621.56
2023-01-10T20:07:09.142Z,98629.91
2023-01-10T20:09:36.957Z,98618.13
2023-01-10T20:12:06.422Z,98626.97
2023-01-10T20:14:34.223Z,98630.19
2023-01-10T20:17:02.351Z,98628.00
2023-01-10T20:19:30.172Z,98618.91
2023-01-10T20:21:57.934Z,98615.09
2023-01-10T20:24:25.733Z,98609.28
2023-01-10T20:26:53.595Z,98606.66
2023-01-10T20:29:22.719Z,98606.50
2023-01-10T20:31:53.008Z,98620.06
2023-01-10T20:34:22.707Z,98610.88
2023-01-10T20:36:52.567Z,98602.16
2023-01-10T20:39:20.587Z,98604.34
2023-01-10T20:41:48.444Z,98599.97
2023-01-10T20:44:16.268Z,98586.84
2023-01-10T20:46:45.573Z,98589.69
2023-01-10T20:49:13.300Z,98588.59
2023-01-10T20:51:41.144Z,98596.19
2023-01-10T20:54:09.199Z,98586.47
2023-01-10T20:56:36.960Z,98585.38
2023-01-10T20:59:05.473Z,98586.47
2023-01-10T21:01:35.686Z,98584.81
2023-01-10T21:04:05.536Z,98596.50
2023-01-10T21:06:34.341Z,98587.16
2023-01-10T21:09:02.276Z,98585.75
2023-01-10T21:11:30.064Z,98577.03
2023-01-10T21:13:57.949Z,98573.81
2023-01-10T21:16:26.003Z,98579.13
2023-01-10T21:18:53.844Z,98572.44
2023-01-10T21:21:23.640Z,98581.91
2023-01-10T21:23:51.615Z,98575.47
2023-01-10T21:26:19.288Z,98566.13
2023-01-10T21:28:47.857Z,98561.47
2023-01-10T21:31:18.144Z,98558.59
2023-01-10T21:33:46.001Z,98559.06
2023-01-10T21:36:15.197Z,98557.97
2023-01-10T21:38:45.074Z,98553.16
2023-01-10T21:41:14.582Z,98546.59
2023-01-10T21:43:44.520Z,98542.03
2023-01-10T21:46:12.998Z,98534.59
2023-01-10T21:48:41.066Z,98537.22
2023-01-10T21:51:08.796Z,98537.41
2023-01-10T21:53:37.147Z,98551.41
2023-01-10T21:56:06.893Z,98535.78
2023-01-10T21:58:34.677Z,98533.53
2023-01-10T22:01:02.530Z,98532.56
2023-01-10T22:03:31.350Z,98521.84
2023-01-10T22:05:59.116Z,98519.13
2023-01-10T22:08:26.913Z,98524.63
2023-01-10T22:10:54.945Z,98514.13
2023-01-10T22:13:25.518Z,98516.38
2023-01-10T22:15:58.461Z,98518.56
2023-01-10T22:18:26.228Z,98517.00
2023-01-10T22:20:55.674Z,98507.59
2023-01-10T22:23:23.997Z,98517.63
2023-01-10T22:25:59.850Z,98510.38
2023-01-10T22:28:29.530Z,98512.22
2023-01-10T22:30:57.368Z,98507.00
2023-01-10T22:33:30.024Z,98507.19
2023-01-10T22:35:58.268Z,98501.59
2023-01-10T22:38:25.975Z,98501.03
2023-01-10T22:40:53.728Z,98496.00
2023-01-10T22:43:21.424Z,98496.84
2023-01-10T22:45:50.489Z,98511.25
2023-01-10T22:48:18.335Z,98506.19
2023-01-10T22:50:49.462Z,98500.00
2023-01-10T22:53:17.236Z,98502.63
2023-01-10T22:55:44.946Z,98496.63
2023-01-10T22:58:12.993Z,98503.06
2023-01-10T23:00:40.751Z,98499.41
2023-01-10T23:03:09.948Z,98500.88
2023-01-10T23:05:37.690Z,98494.59
2023-01-10T23:08:06.969Z,98493.44
2023-01-10T23:10:34.784Z,98489.03
2023-01-10T23:13:04.122Z,98486.25
2023-01-10T23:15:32.084Z,98487.09
2023-01-10T23:17:59.901Z,98480.84
2023-01-10T23:20:29.031Z,98480.78
2023-01-10T23:22:56.701Z,98470.81
2023-01-10T23:25:24.518Z,98458.97
2023-01-10T23:27:52.285Z,98458.97
2023-01-10T23:30:22.434Z,98445.31
2023-01-10T23:32:51.220Z,98451.38
2023-01-10T23:35:18.930Z,98445.41
2023-01-10T23:37:48.029Z,98441.00
2023-01-10T23:40:15.877Z,98438.59
2023-01-10T23:42:43.581Z,98440.44
2023-01-10T23:45:11.685Z,98439.41
2023-01-10T23:47:39.407Z,98431.81
2023-01-10T23:50:07.829Z,98415.19
2023-01-10T23:52:35.495Z,98417.88
2023-01-10T23:55:04.930Z,98412.59
2023-01-10T23:57:32.601Z,98412.59
